Wind From: 11-12-2017 10:04 Until: 12-12-2017 06:00 warning for: Wind Level: Orange info button

Power and phone distribution networks may be disrupted for relatively long periods., Roofs and chimneys can be damaged. , Tree branches may break. , Vehicles can be deported. , Traffic may be disrupted, particularly on secondary roads in forest areas. Limit your trips. , Limit your speed in highway driving, especially if you drive a vehicle or hitch sensitive to wind. , Do not go for walks in forests or along the coast., In town, be vigilant against possible falling objects., Do not work on roofs and do not touch any electrical line fallen on the ground., Store or secure sensitive objects to wind or likely to be damaged., Always install power generators outside buildings. 


Meteo18 Weather Cam more information Meteo18 Weather Cam


Thunder radar more information blitzortung!


Rain radar more information rain snow radar


Visit our other weather sites:

Template documentation
and downloads

And another site



Weather Underground History page Text

Daily Summary for January 31, 2016 Units:  Metric    English   Both
« Previous Day
Next Day »
Daily Weekly Monthly Yearly Custom
  High: Low: Average:
Temperature: 12.8 °C 7.2 °C 10.2 °C
Dew Point: 12.1 °C 6.7 °C 9.7 °C
Humidity: 99 % 95 % 97 %
Wind Speed: 16.1 km/h 0.0 km/h 3.6 km/h
Wind Gust: 22.5 km/h - -
Wind:- - SW
Pressure: 1024.3 hPa 1015.1 hPa -
Precipitation: 15.5 mm    
Historical Graphs
 
 
Tabular Data for January 31, 2016
Time Temperature Dew Point Pressure Wind Wind Speed Wind Gust Humidity Rainfall Rate (Hourly)
00:01 8.3 °C 7.7 °C 1018.2 hPa Calm   4.8 km/h 96 % 1.0 mm
00:07 8.3 °C 7.7 °C 1018.2 hPa Calm   3.2 km/h 96 % 1.0 mm
00:17 8.2 °C 7.6 °C 1018.2 hPa SW 1.6 km/h 1.6 km/h 96 % 1.0 mm
00:22 8.2 °C 7.6 °C 1018.2 hPa Calm   1.6 km/h 96 % 1.0 mm
00:32 8.2 °C 7.6 °C 1018.2 hPa Calm   3.2 km/h 96 % 0.8 mm
00:37 8.2 °C 7.6 °C 1018.2 hPa Calm   1.6 km/h 96 % 0.8 mm
00:47 8.2 °C 7.6 °C 1018.2 hPa Calm   3.2 km/h 96 % 0.8 mm
00:52 8.1 °C 7.5 °C 1018.2 hPa Calm   3.2 km/h 96 % 0.8 mm
00:57 8.1 °C 7.5 °C 1018.5 hPa Calm   3.2 km/h 96 % 1.0 mm
01:09 8.1 °C 7.5 °C 1018.2 hPa Calm   4.8 km/h 96 % 1.3 mm
01:17 8.0 °C 7.4 °C 1018.2 hPa SSW 1.6 km/h 3.2 km/h 96 % 1.5 mm
01:22 7.9 °C 7.3 °C 1017.8 hPa Calm   4.8 km/h 96 % 1.5 mm
01:34 7.8 °C 7.2 °C 1017.8 hPa Calm   3.2 km/h 96 % 1.8 mm
01:42 7.8 °C 7.2 °C 1017.8 hPa Calm   1.6 km/h 96 % 1.8 mm
01:52 7.7 °C 7.1 °C 1017.8 hPa Calm   1.6 km/h 96 % 1.8 mm
01:57 7.7 °C 7.1 °C 1017.8 hPa Calm   1.6 km/h 96 % 1.8 mm
02:02 7.7 °C 7.1 °C 1017.8 hPa Calm   3.2 km/h 96 % 1.8 mm
02:12 7.6 °C 7.0 °C 1017.5 hPa Calm   3.2 km/h 96 % 1.8 mm
02:17 7.6 °C 7.0 °C 1017.5 hPa Calm   1.6 km/h 96 % 1.5 mm
02:22 7.5 °C 6.9 °C 1017.5 hPa Calm   1.6 km/h 96 % 1.5 mm
02:32 7.4 °C 6.8 °C 1017.5 hPa Calm     96 % 1.5 mm
02:37 7.4 °C 6.8 °C 1017.5 hPa Calm     96 % 1.5 mm
02:47 7.4 °C 6.8 °C 1017.2 hPa Calm     96 % 1.8 mm
02:52 7.3 °C 6.7 °C 1017.5 hPa Calm     96 % 1.8 mm
02:57 7.3 °C 6.7 °C 1017.5 hPa Calm     96 % 1.8 mm
03:07 7.3 °C 6.9 °C 1017.8 hPa Calm     97 % 1.8 mm
03:12 7.3 °C 6.9 °C 1017.5 hPa Calm     97 % 1.8 mm
03:22 7.3 °C 6.9 °C 1017.2 hPa Calm     97 % 1.5 mm
03:32 7.2 °C 6.8 °C 1017.2 hPa Calm     97 % 1.5 mm
03:42 7.3 °C 6.9 °C 1017.2 hPa Calm     97 % 1.3 mm
03:47 7.3 °C 6.9 °C 1017.2 hPa Calm     97 % 1.3 mm
03:52 7.3 °C 6.9 °C 1017.2 hPa Calm     97 % 1.3 mm
04:00 7.2 °C 6.8 °C 1017.2 hPa Calm     97 % 1.3 mm
04:07 7.2 °C 6.8 °C 1017.2 hPa Calm     97 % 1.3 mm
04:17 7.2 °C 6.8 °C 1017.2 hPa Calm     97 % 1.3 mm
04:22 7.3 °C 6.9 °C 1016.8 hPa Calm     97 % 1.3 mm
04:32 7.2 °C 6.8 °C 1017.2 hPa Calm     97 % 1.3 mm
04:37 7.2 °C 6.8 °C 1017.2 hPa Calm     97 % 1.0 mm
04:47 7.2 °C 6.8 °C 1016.8 hPa Calm     97 % 1.0 mm
04:57 7.2 °C 6.8 °C 1016.5 hPa Calm     97 % 1.0 mm
05:02 7.2 °C 6.8 °C 1016.5 hPa Calm     97 % 1.0 mm
05:07 7.2 °C 6.8 °C 1016.5 hPa Calm     97 % 1.0 mm
05:12 7.2 °C 6.8 °C 1016.5 hPa Calm     97 % 1.0 mm
05:22 7.2 °C 6.9 °C 1016.5 hPa Calm     98 % 1.0 mm
05:42 7.2 °C 6.9 °C 1016.8 hPa Calm     98 % 1.0 mm
05:52 7.2 °C 6.9 °C 1016.5 hPa Calm     98 % 1.0 mm
05:57 7.2 °C 6.9 °C 1016.5 hPa Calm     98 % 1.0 mm
06:02 7.2 °C 6.9 °C 1016.5 hPa Calm   1.6 km/h 98 % 1.0 mm
06:12 7.2 °C 6.9 °C 1016.5 hPa Calm   1.6 km/h 98 % 1.3 mm
06:17 7.2 °C 6.9 °C 1016.1 hPa Calm   1.6 km/h 98 % 1.3 mm
06:27 7.2 °C 6.9 °C 1016.5 hPa Calm   1.6 km/h 98 % 1.0 mm
06:32 7.2 °C 6.9 °C 1016.1 hPa Calm   1.6 km/h 98 % 1.0 mm
06:37 7.2 °C 6.9 °C 1016.5 hPa Calm   1.6 km/h 98 % 1.3 mm
06:42 7.2 °C 6.9 °C 1016.1 hPa Calm   1.6 km/h 98 % 1.3 mm
06:47 7.2 °C 6.9 °C 1016.1 hPa WSW 1.6 km/h 1.6 km/h 98 % 1.3 mm
06:52 7.2 °C 6.9 °C 1016.1 hPa WSW 1.6 km/h 1.6 km/h 98 % 1.0 mm
07:02 7.2 °C 6.9 °C 1015.8 hPa Calm   1.6 km/h 98 % 1.0 mm
07:07 7.2 °C 6.9 °C 1015.8 hPa Calm   1.6 km/h 98 % 1.3 mm
07:12 7.2 °C 6.9 °C 1016.1 hPa Calm   1.6 km/h 98 % 1.3 mm
07:17 7.2 °C 6.9 °C 1015.8 hPa Calm   1.6 km/h 98 % 1.0 mm
07:27 7.2 °C 6.9 °C 1015.8 hPa Calm   1.6 km/h 98 % 1.0 mm
07:37 7.2 °C 6.9 °C 1015.8 hPa Calm   1.6 km/h 98 % 1.3 mm
07:42 7.2 °C 6.9 °C 1015.8 hPa Calm   1.6 km/h 98 % 1.3 mm
07:47 7.2 °C 6.9 °C 1015.8 hPa Calm     98 % 1.0 mm
07:57 7.2 °C 6.9 °C 1015.8 hPa Calm     98 % 1.0 mm
08:02 7.2 °C 6.9 °C 1015.8 hPa Calm     98 % 1.0 mm
08:07 7.3 °C 7.0 °C 1015.8 hPa Calm     98 % 1.0 mm
08:17 7.3 °C 7.0 °C 1015.8 hPa Calm     98 % 0.8 mm
08:22 7.3 °C 7.0 °C 1015.8 hPa Calm     98 % 0.8 mm
08:32 7.3 °C 7.0 °C 1015.8 hPa Calm     98 % 0.8 mm
08:42 7.4 °C 7.1 °C 1015.8 hPa Calm   1.6 km/h 98 % 0.5 mm
08:52 7.5 °C 7.2 °C 1015.8 hPa Calm   1.6 km/h 98 % 0.5 mm
08:57 7.6 °C 7.3 °C 1015.8 hPa Calm   1.6 km/h 98 % 0.8 mm
09:07 8.4 °C 8.3 °C 1015.5 hPa WSW 1.6 km/h 4.8 km/h 99 % 0.5 mm
09:17 9.0 °C 8.9 °C 1015.1 hPa SW 3.2 km/h 11.3 km/h 99 % 0.8 mm
09:27 9.9 °C 9.7 °C 1015.1 hPa SW 4.8 km/h 14.5 km/h 99 % 0.8 mm
09:32 10.2 °C 10.0 °C 1015.5 hPa WSW 8.0 km/h 14.5 km/h 99 % 0.8 mm
09:37 10.3 °C 10.1 °C 1015.5 hPa SW 6.4 km/h 17.7 km/h 99 % 0.5 mm
09:42 10.4 °C 10.2 °C 1015.5 hPa WSW 3.2 km/h 17.7 km/h 99 % 0.5 mm
09:52 10.7 °C 10.5 °C 1015.5 hPa WSW 6.4 km/h 16.1 km/h 99 % 0.8 mm
09:57 10.7 °C 10.5 °C 1015.5 hPa SW 8.0 km/h 17.7 km/h 99 % 0.5 mm
10:07 10.9 °C 10.7 °C 1015.5 hPa SW 8.0 km/h 17.7 km/h 99 % 0.5 mm
10:12 10.9 °C 10.7 °C 1015.8 hPa WSW 3.2 km/h 17.7 km/h 99 % 0.5 mm
10:22 11.1 °C 10.9 °C 1015.8 hPa WSW 8.0 km/h 12.9 km/h 99 % 0.5 mm
10:27 11.1 °C 10.9 °C 1015.8 hPa SW 9.7 km/h 12.9 km/h 99 % 0.5 mm
10:32 11.2 °C 10.9 °C 1015.5 hPa SW 9.7 km/h 12.9 km/h 98 % 0.5 mm
10:42 11.3 °C 11.0 °C 1015.5 hPa SW 9.7 km/h 16.1 km/h 98 % 0.5 mm
10:47 11.4 °C 11.1 °C 1015.5 hPa SW 9.7 km/h 16.1 km/h 98 % 0.5 mm
10:52 11.4 °C 11.1 °C 1015.8 hPa SSW 4.8 km/h 14.5 km/h 98 % 0.5 mm
11:02 11.4 °C 10.9 °C 1016.1 hPa SSE 6.4 km/h 19.3 km/h 97 % 0.8 mm
11:07 11.4 °C 10.9 °C 1016.1 hPa SW 3.2 km/h 17.7 km/h 97 % 0.8 mm
11:17 11.5 °C 11.0 °C 1016.1 hPa WSW 14.5 km/h 14.5 km/h 97 % 1.0 mm
11:22 11.6 °C 11.1 °C 1016.1 hPa SW 8.0 km/h 14.5 km/h 97 % 1.0 mm
11:29 11.6 °C 11.1 °C 1016.5 hPa WSW 4.8 km/h 17.7 km/h 97 % 1.0 mm
11:37 11.6 °C 11.1 °C 1016.5 hPa SSW 8.0 km/h 17.7 km/h 97 % 0.8 mm
11:47 11.6 °C 11.1 °C 1016.5 hPa SW 8.0 km/h 14.5 km/h 97 % 1.0 mm
11:57 11.7 °C 11.2 °C 1016.5 hPa SSE 4.8 km/h 19.3 km/h 97 % 0.8 mm
12:02 11.8 °C 11.3 °C 1016.5 hPa WSW 8.0 km/h 19.3 km/h 97 % 0.8 mm
12:07 11.8 °C 11.2 °C 1016.5 hPa SW 6.4 km/h 14.5 km/h 96 % 0.5 mm
12:19 11.9 °C 11.3 °C 1016.5 hPa SSW 3.2 km/h 14.5 km/h 96 % 0.5 mm
12:27 12.1 °C 11.5 °C 1016.5 hPa ESE 3.2 km/h 16.1 km/h 96 % 0.5 mm
12:32 12.1 °C 11.5 °C 1016.8 hPa SSW 6.4 km/h 16.1 km/h 96 % 0.5 mm
12:42 12.1 °C 11.5 °C 1016.8 hPa WSW 16.1 km/h 16.1 km/h 96 % 0.5 mm
12:52 12.2 °C 11.6 °C 1016.8 hPa SSE 8.0 km/h 17.7 km/h 96 % 0.3 mm
13:02 12.3 °C 11.5 °C 1016.5 hPa WSW 9.7 km/h 17.7 km/h 95 % 0.5 mm
13:07 12.3 °C 11.5 °C 1016.5 hPa WSW 4.8 km/h 16.1 km/h 95 % 0.3 mm
13:22 12.3 °C 11.7 °C 1016.8 hPa SW 6.4 km/h 11.3 km/h 96 % 0.3 mm
13:32 12.3 °C 11.7 °C 1017.2 hPa SW 8.0 km/h 11.3 km/h 96 % 0.3 mm
13:37 12.3 °C 11.7 °C 1016.8 hPa SW 6.4 km/h 16.1 km/h 96 % 0.3 mm
13:47 12.2 °C 11.4 °C 1017.2 hPa SW 3.2 km/h 16.1 km/h 95 % 0.3 mm
13:52 12.3 °C 11.7 °C 1017.2 hPa SW 4.8 km/h 12.9 km/h 96 % 0.3 mm
13:57 12.3 °C 11.7 °C 1017.2 hPa WSW 11.3 km/h 12.9 km/h 96 % 0.0 mm
14:02 12.3 °C 11.7 °C 1017.2 hPa WSW 6.4 km/h 12.9 km/h 96 % 0.0 mm
14:12 12.4 °C 11.8 °C 1016.8 hPa WSW 4.8 km/h 16.1 km/h 96 % 0.3 mm
14:22 12.4 °C 11.8 °C 1017.2 hPa SSW 6.4 km/h 12.9 km/h 96 % 0.3 mm
14:27 12.5 °C 11.9 °C 1017.2 hPa WSW 8.0 km/h 14.5 km/h 96 % 0.5 mm
14:37 12.6 °C 12.0 °C 1017.2 hPa Calm   14.5 km/h 96 % 0.5 mm
14:42 12.7 °C 12.1 °C 1017.2 hPa SSE 3.2 km/h 12.9 km/h 96 % 0.5 mm
14:47 12.7 °C 12.1 °C 1017.2 hPa West 3.2 km/h 12.9 km/h 96 % 0.5 mm
14:57 12.6 °C 12.0 °C 1017.2 hPa SW 4.8 km/h 12.9 km/h 96 % 0.5 mm
15:02 12.6 °C 11.8 °C 1017.2 hPa WNW 3.2 km/h 12.9 km/h 95 % 0.5 mm
15:07 12.6 °C 11.8 °C 1017.2 hPa SSW 6.4 km/h 14.5 km/h 95 % 0.3 mm
15:17 12.7 °C 11.9 °C 1017.5 hPa South 8.0 km/h 14.5 km/h 95 % 0.3 mm
15:37 12.7 °C 11.9 °C 1017.2 hPa WSW 3.2 km/h 16.1 km/h 95 % 0.0 mm
15:47 12.8 °C 12.0 °C 1017.5 hPa SW 3.2 km/h 12.9 km/h 95 % 0.0 mm
15:52 12.8 °C 12.0 °C 1017.8 hPa SW 6.4 km/h 14.5 km/h 95 % 0.0 mm
15:57 12.7 °C 11.9 °C 1017.8 hPa WSW 4.8 km/h 14.5 km/h 95 % 0.0 mm
16:07 12.7 °C 11.9 °C 1017.8 hPa WSW 4.8 km/h 17.7 km/h 95 % 0.0 mm
16:12 12.6 °C 12.0 °C 1017.8 hPa SW 8.0 km/h 17.7 km/h 96 % 0.0 mm
16:27 12.5 °C 11.9 °C 1018.2 hPa WSW 1.6 km/h 12.9 km/h 96 % 0.3 mm
16:37 12.5 °C 11.9 °C 1018.2 hPa WSW 12.9 km/h 14.5 km/h 96 % 0.3 mm
16:42 12.4 °C 11.8 °C 1018.5 hPa WSW 6.4 km/h 14.5 km/h 96 % 0.3 mm
16:47 12.4 °C 11.8 °C 1018.5 hPa SW 6.4 km/h 16.1 km/h 96 % 0.3 mm
16:52 12.4 °C 11.8 °C 1018.5 hPa Calm   16.1 km/h 96 % 0.3 mm
17:02 12.4 °C 11.8 °C 1018.8 hPa WSW 4.8 km/h 17.7 km/h 96 % 0.3 mm
17:12 12.3 °C 11.7 °C 1018.8 hPa SW 6.4 km/h 17.7 km/h 96 % 0.3 mm
17:22 12.3 °C 11.7 °C 1018.8 hPa SW 4.8 km/h 16.1 km/h 96 % 0.3 mm
17:32 12.2 °C 11.6 °C 1019.2 hPa Calm   11.3 km/h 96 % 0.0 mm
17:37 12.2 °C 11.6 °C 1019.2 hPa WSW 6.4 km/h 12.9 km/h 96 % 0.0 mm
17:47 12.2 °C 11.6 °C 1019.5 hPa SSE 8.0 km/h 12.9 km/h 96 % 0.0 mm
17:52 12.2 °C 11.7 °C 1019.5 hPa WNW 3.2 km/h 12.9 km/h 97 % 0.0 mm
17:57 12.2 °C 11.7 °C 1019.9 hPa South 3.2 km/h 12.9 km/h 97 % 0.0 mm
18:07 12.2 °C 11.6 °C 1019.9 hPa WSW 6.4 km/h 14.5 km/h 96 % 0.0 mm
18:12 12.2 °C 11.6 °C 1019.9 hPa SW 8.0 km/h 14.5 km/h 96 % 0.0 mm
18:17 12.2 °C 11.7 °C 1020.2 hPa WSW 4.8 km/h 14.5 km/h 97 % 0.3 mm
18:27 12.2 °C 11.7 °C 1020.2 hPa WSW 4.8 km/h 17.7 km/h 97 % 0.3 mm
18:32 12.2 °C 11.7 °C 1020.2 hPa SSW 6.4 km/h 17.7 km/h 97 % 0.3 mm
18:42 12.2 °C 11.7 °C 1020.5 hPa WSW 3.2 km/h 16.1 km/h 97 % 0.3 mm
18:47 12.2 °C 11.7 °C 1020.9 hPa SSW 3.2 km/h 16.1 km/h 97 % 0.3 mm
18:57 12.2 °C 11.7 °C 1020.9 hPa SSW 3.2 km/h 12.9 km/h 97 % 0.3 mm
19:07 12.2 °C 11.7 °C 1020.9 hPa SW 9.7 km/h 16.1 km/h 97 % 0.3 mm
19:17 12.2 °C 11.7 °C 1021.2 hPa Calm   11.3 km/h 97 % 0.3 mm
19:22 12.2 °C 11.7 °C 1021.6 hPa WSW 1.6 km/h 12.9 km/h 97 % 0.3 mm
19:32 12.1 °C 11.6 °C 1021.6 hPa South 1.6 km/h 11.3 km/h 97 % 0.5 mm
19:42 12.1 °C 11.6 °C 1021.6 hPa SE 4.8 km/h 12.9 km/h 97 % 0.5 mm
19:52 12.1 °C 11.6 °C 1021.6 hPa WSW 1.6 km/h 14.5 km/h 97 % 0.5 mm
20:02 12.1 °C 11.6 °C 1021.9 hPa Calm   16.1 km/h 97 % 0.5 mm
20:07 12.1 °C 11.6 °C 1021.9 hPa SSW 8.0 km/h 14.5 km/h 97 % 0.3 mm
20:17 12.1 °C 11.6 °C 1022.2 hPa SW 3.2 km/h 16.1 km/h 97 % 0.5 mm
20:22 12.1 °C 11.5 °C 1022.2 hPa West 1.6 km/h 16.1 km/h 96 % 0.5 mm
20:32 12.1 °C 11.5 °C 1022.2 hPa WSW 4.8 km/h 12.9 km/h 96 % 0.3 mm
20:37 12.1 °C 11.5 °C 1021.9 hPa SW 1.6 km/h 12.9 km/h 96 % 0.3 mm
20:42 12.1 °C 11.5 °C 1021.9 hPa SW 6.4 km/h 12.9 km/h 96 % 0.3 mm
20:52 12.0 °C 11.5 °C 1021.9 hPa South 8.0 km/h 12.9 km/h 97 % 0.3 mm
21:02 12.0 °C 11.5 °C 1022.2 hPa WSW 6.4 km/h 20.9 km/h 97 % 0.3 mm
21:12 11.9 °C 11.4 °C 1022.2 hPa WSW 8.0 km/h 20.9 km/h 97 % 0.3 mm
21:22 11.9 °C 11.4 °C 1022.2 hPa WSW 6.4 km/h 17.7 km/h 97 % 0.0 mm
21:27 11.9 °C 11.4 °C 1022.2 hPa SSW 8.0 km/h 22.5 km/h 97 % 0.0 mm
21:37 11.9 °C 11.4 °C 1022.2 hPa SW 8.0 km/h 20.9 km/h 97 % 0.0 mm
21:42 11.9 °C 11.4 °C 1022.6 hPa SW 3.2 km/h 20.9 km/h 97 % 0.0 mm
21:47 11.9 °C 11.4 °C 1022.6 hPa SW 4.8 km/h 20.9 km/h 97 % 0.0 mm
21:57 11.9 °C 11.4 °C 1022.9 hPa SSE 4.8 km/h 14.5 km/h 97 % 0.3 mm
22:07 11.9 °C 11.4 °C 1022.9 hPa SW 9.7 km/h 16.1 km/h 97 % 0.3 mm
22:12 11.9 °C 11.4 °C 1022.9 hPa SW 6.4 km/h 16.1 km/h 97 % 0.3 mm
22:17 11.9 °C 11.4 °C 1022.9 hPa SW 9.7 km/h 14.5 km/h 97 % 0.3 mm
22:22 11.9 °C 11.4 °C 1023.2 hPa SW 6.4 km/h 17.7 km/h 97 % 0.3 mm
22:32 11.9 °C 11.4 °C 1023.2 hPa SW 9.7 km/h 17.7 km/h 97 % 0.3 mm
22:42 11.9 °C 11.4 °C 1023.6 hPa SW 4.8 km/h 14.5 km/h 97 % 0.3 mm
22:52 11.9 °C 11.4 °C 1023.9 hPa SSE 9.7 km/h 17.7 km/h 97 % 0.3 mm
23:02 11.8 °C 11.3 °C 1023.9 hPa WSW 9.7 km/h 17.7 km/h 97 % 0.3 mm
23:12 11.8 °C 11.3 °C 1023.9 hPa SE 4.8 km/h 17.7 km/h 97 % 0.3 mm
23:27 11.8 °C 11.3 °C 1023.9 hPa SW 6.4 km/h 14.5 km/h 97 % 0.3 mm
23:32 11.8 °C 11.3 °C 1024.3 hPa SW 8.0 km/h 12.9 km/h 97 % 0.3 mm
23:42 11.8 °C 11.3 °C 1024.3 hPa SW 4.8 km/h 12.9 km/h 97 % 0.3 mm
23:52 11.8 °C 11.3 °C 1024.3 hPa SW 9.7 km/h 14.5 km/h 97 % 0.3 mm
23:57 11.8 °C 11.3 °C 1024.3 hPa WSW 4.8 km/h 14.5 km/h 97 % 0.3 mm
Meteo18
Compliments of Weather Underground - 4 mb

Script developed by  Jim McMurry - jmcmurry@mwt.net Adapted for the template by  Wim van der Kuil - Leuven-Template.eu

You find our weather info also at:

European Weather Network

Weather Underground

Equipment we use:

Weather-station
Davis Vue

Weather-program
Meteohub

Weather-server
Raspberry PI 2 B+

Provider
1 and 1

Davis Vue

Meteohub

Raspberry PI 2 B+

1 and 1